Sonora, Texas
Current Conditions -  °F | °C
As of 10:55 PM on Thursday 30 Oct 2014 (Local Time) from KSOA Reporting Station
Clear Clear  
Wind Chill: 64°   Ceiling: Unl
Heat Index: 64°   Visibility: 10mi
Dew Point: 55°   Wind: 5mph
Humidity: 73%   Direction: 10°N
Pressure: 30.18"   Gusts: NA
Location:  30.57°N, 100.64°W
Report Text: KSOA 310355Z AUTO 01004KT 10SM CLR 18/13 A3018 RMK AO2
Loading
Personal Weather Stations






























Interactive Weather Map
Tropical Storm Tracking
New forecast layout! Learn more

10-Day Weather Forecast

Advertisements
Track Severe Weather on mobile